Time;durP1;ratioP1;P1;durP2;ratioP2;P2;SDS_P1;SDS_P2;PMS_P1;PMS_P2;Temp;Humidity;BMP_temperature;BMP_pressure;BME280_temperature;BME280_humidity;BME280_pressure;Samples;Min_cycle;Max_cycle;Signal;HPM_P1;HPM_P2
2021/01/20 00:01:00;;;;;;;4.90;2.27;;;5.40;99.90;;;;;;5013725;28;20583;-77
2021/01/20 00:03:28;;;;;;;3.10;1.93;;;5.40;99.90;;;;;;5013680;28;20217;-77
2021/01/20 00:05:54;;;;;;;4.22;2.00;;;5.40;99.90;;;;;;5013761;28;20527;-76
2021/01/20 00:08:20;;;;;;;6.35;2.10;;;5.30;99.90;;;;;;5012933;28;20603;-78
2021/01/20 00:10:46;;;;;;;2.60;2.00;;;5.40;99.90;;;;;;5013380;28;20205;-77
2021/01/20 00:13:15;;;;;;;2.80;1.98;;;5.30;99.90;;;;;;5013672;28;20171;-77
2021/01/20 00:15:42;;;;;;;3.20;2.08;;;5.30;99.90;;;;;;5013557;28;20254;-76
2021/01/20 00:18:08;;;;;;;3.85;1.85;;;5.30;99.90;;;;;;5013151;28;20190;-77
2021/01/20 00:20:33;;;;;;;4.97;2.20;;;5.30;99.90;;;;;;5013342;28;20179;-76
2021/01/20 00:22:59;;;;;;;4.50;2.30;;;5.20;99.90;;;;;;5013453;28;20425;-77
2021/01/20 00:25:24;;;;;;;3.70;2.00;;;5.30;99.90;;;;;;5013425;28;20175;-77
2021/01/20 00:27:50;;;;;;;2.80;2.00;;;5.30;99.90;;;;;;5013149;28;20201;-77
2021/01/20 00:30:16;;;;;;;2.37;1.87;;;5.30;99.90;;;;;;5013508;28;20666;-78
2021/01/20 00:32:41;;;;;;;2.90;2.30;;;5.30;99.90;;;;;;5013369;28;20640;-77
2021/01/20 00:35:09;;;;;;;2.40;1.97;;;5.40;99.90;;;;;;5013467;28;20167;-77
2021/01/20 00:37:35;;;;;;;5.55;2.50;;;5.50;99.90;;;;;;5013116;28;20209;-77
2021/01/20 00:40:02;;;;;;;2.87;2.10;;;5.40;99.90;;;;;;5013460;28;20597;-77
2021/01/20 00:42:28;;;;;;;2.97;2.15;;;5.40;99.90;;;;;;5013309;28;20533;-77
2021/01/20 00:44:53;;;;;;;2.33;2.10;;;5.30;99.90;;;;;;5013342;28;20250;-77
2021/01/20 00:47:19;;;;;;;3.07;2.23;;;5.30;99.90;;;;;;5012917;28;20759;-78
2021/01/20 00:49:44;;;;;;;4.93;2.33;;;5.30;99.90;;;;;;5013202;28;20298;-78
2021/01/20 00:52:10;;;;;;;2.07;1.60;;;5.30;99.90;;;;;;5013277;28;20258;-77
2021/01/20 00:54:36;;;;;;;4.33;2.80;;;5.30;99.90;;;;;;5013250;28;20179;-77
2021/01/20 00:57:01;;;;;;;3.33;2.10;;;5.20;99.90;;;;;;5012712;28;20595;-76
2021/01/20 00:59:27;;;;;;;2.90;1.93;;;5.20;99.90;;;;;;5013162;28;20186;-76
2021/01/20 01:01:57;;;;;;;3.30;2.10;;;5.10;99.90;;;;;;5013584;28;20650;-78
2021/01/20 01:04:24;;;;;;;4.25;2.25;;;5.10;99.90;;;;;;5015919;28;20547;-76
2021/01/20 01:06:50;;;;;;;3.72;2.30;;;5.00;99.90;;;;;;5012578;28;20179;-77
2021/01/20 01:09:16;;;;;;;3.63;2.00;;;5.20;99.90;;;;;;5012797;28;20272;-77
2021/01/20 01:11:42;;;;;;;3.70;2.10;;;5.20;99.90;;;;;;5012875;28;20264;-76
2021/01/20 01:14:07;;;;;;;2.37;2.17;;;5.30;99.90;;;;;;5012913;28;20250;-77
2021/01/20 01:16:33;;;;;;;2.83;2.23;;;5.30;99.90;;;;;;5012828;28;20206;-77
2021/01/20 01:18:59;;;;;;;3.40;2.27;;;5.30;99.90;;;;;;5011631;28;20281;-77
2021/01/20 01:21:24;;;;;;;2.73;1.83;;;5.30;99.90;;;;;;5016398;28;20410;-77
2021/01/20 01:23:50;;;;;;;3.40;2.03;;;5.30;99.90;;;;;;5016588;28;20197;-76
2021/01/20 01:26:15;;;;;;;3.30;1.93;;;5.40;99.90;;;;;;5016343;28;20647;-76
2021/01/20 01:28:42;;;;;;;5.67;2.60;;;5.50;99.90;;;;;;5015957;28;20230;-77
2021/01/20 01:31:08;;;;;;;4.40;2.15;;;5.40;99.90;;;;;;5016282;28;20666;-77
2021/01/20 01:33:34;;;;;;;6.05;2.00;;;5.40;99.90;;;;;;5016216;28;20183;-76
2021/01/20 01:35:59;;;;;;;4.40;2.33;;;5.50;99.90;;;;;;5016194;28;20175;-77
2021/01/20 01:38:26;;;;;;;3.00;2.00;;;5.50;99.90;;;;;;5015753;28;20195;-76
2021/01/20 01:40:51;;;;;;;3.47;2.00;;;5.60;99.90;;;;;;5016043;28;20181;-76
2021/01/20 01:43:17;;;;;;;3.20;2.40;;;5.60;99.90;;;;;;5016172;28;20175;-76
2021/01/20 01:45:43;;;;;;;2.47;2.10;;;5.80;99.90;;;;;;5016097;28;20270;-76
2021/01/20 01:48:08;;;;;;;2.47;2.13;;;5.90;99.90;;;;;;5015604;28;20202;-76
2021/01/20 01:50:34;;;;;;;3.23;2.10;;;5.90;99.90;;;;;;5015805;28;20237;-76
2021/01/20 01:53:00;;;;;;;3.50;2.17;;;5.90;99.90;;;;;;5015826;28;20176;-77
2021/01/20 01:55:25;;;;;;;3.97;2.03;;;5.90;99.90;;;;;;5015502;28;20170;-77
2021/01/20 01:57:51;;;;;;;3.80;2.30;;;6.10;99.90;;;;;;5015116;28;20655;-77
2021/01/20 02:00:17;;;;;;;2.97;2.07;;;6.10;99.90;;;;;;5015750;28;20179;-77
2021/01/20 02:02:42;;;;;;;4.20;2.40;;;6.10;99.90;;;;;;5015652;28;20189;-77
2021/01/20 02:05:08;;;;;;;5.07;2.83;;;6.20;99.90;;;;;;5015610;28;20468;-76
2021/01/20 02:07:35;;;;;;;4.60;2.60;;;6.20;99.90;;;;;;5015013;28;20210;-77
2021/01/20 02:10:03;;;;;;;3.30;2.25;;;6.30;99.90;;;;;;5015389;28;20597;-76
2021/01/20 02:12:45;;;;;;;4.68;2.35;;;6.30;99.90;;;;;;5015625;28;20253;-76
2021/01/20 02:15:18;;;;;;;3.78;2.40;;;6.30;99.90;;;;;;5015696;28;20254;-77
2021/01/20 02:17:47;;;;;;;4.03;2.58;;;6.30;99.90;;;;;;5015067;28;20194;-76
2021/01/20 02:20:41;;;;;;;4.75;2.70;;;6.30;99.90;;;;;;5015359;28;20179;-77
2021/01/20 02:23:13;;;;;;;4.38;2.80;;;6.50;99.90;;;;;;5015616;28;20647;-77
2021/01/20 02:26:01;;;;;;;3.40;2.72;;;6.60;99.90;;;;;;5015110;28;20179;-76
2021/01/20 02:28:44;;;;;;;2.40;2.20;;;6.50;99.90;;;;;;5014704;28;20212;-76
2021/01/20 02:31:14;;;;;;;3.38;2.67;;;6.50;99.90;;;;;;5014051;28;20179;-77
2021/01/20 02:33:45;;;;;;;3.60;2.47;;;6.50;99.90;;;;;;5015134;28;20549;-76
2021/01/20 02:36:12;;;;;;;3.47;1.95;;;6.60;99.90;;;;;;5015336;28;20599;-78
2021/01/20 02:38:40;;;;;;;3.10;2.40;;;6.70;99.90;;;;;;5014707;28;20194;-78
2021/01/20 02:41:05;;;;;;;3.38;1.88;;;6.60;99.90;;;;;;5014989;28;20544;-77
2021/01/20 02:43:31;;;;;;;4.50;2.57;;;6.60;99.90;;;;;;5014851;28;20210;-77
2021/01/20 02:45:57;;;;;;;3.00;2.13;;;6.70;99.90;;;;;;5014783;28;20183;-77
2021/01/20 02:48:22;;;;;;;3.30;1.97;;;6.80;99.90;;;;;;5014459;28;20660;-76
2021/01/20 02:50:48;;;;;;;2.23;1.80;;;6.80;99.90;;;;;;5014864;28;20566;-76
2021/01/20 02:53:20;;;;;;;4.50;2.40;;;6.80;99.90;;;;;;5014757;28;20183;-76
2021/01/20 02:55:58;;;;;;;2.72;1.85;;;6.80;99.90;;;;;;5014499;28;20557;-76
2021/01/20 02:58:30;;;;;;;2.05;1.85;;;6.70;99.90;;;;;;5014114;28;20208;-78
2021/01/20 03:00:58;;;;;;;3.40;1.83;;;6.80;99.90;;;;;;5014572;28;20181;-77
2021/01/20 03:03:25;;;;;;;2.47;1.98;;;6.80;99.90;;;;;;5014527;28;20171;-76
2021/01/20 03:05:51;;;;;;;3.22;1.80;;;6.80;99.90;;;;;;5014364;28;20178;-78
2021/01/20 03:08:18;;;;;;;3.20;1.93;;;6.80;99.90;;;;;;5013807;28;20198;-77
2021/01/20 03:10:44;;;;;;;3.00;2.60;;;6.90;99.90;;;;;;5014362;28;20757;-77
2021/01/20 03:13:10;;;;;;;6.50;2.40;;;6.90;99.90;;;;;;5014442;28;20183;-77
2021/01/20 03:15:40;;;;;;;2.28;2.08;;;6.90;99.90;;;;;;5014373;28;20655;-77
2021/01/20 03:18:06;;;;;;;3.38;2.50;;;7.00;99.90;;;;;;5013681;28;20213;-77
2021/01/20 03:20:32;;;;;;;4.65;2.15;;;7.00;99.90;;;;;;5014183;28;20281;-77
2021/01/20 03:22:58;;;;;;;2.80;2.00;;;7.00;99.90;;;;;;5014242;28;20655;-77
2021/01/20 03:25:24;;;;;;;2.58;1.88;;;7.00;99.90;;;;;;5014554;28;20226;-78
2021/01/20 03:27:50;;;;;;;3.00;2.10;;;7.00;99.90;;;;;;5013829;28;20683;-77
2021/01/20 03:30:17;;;;;;;4.15;2.47;;;7.00;99.90;;;;;;5014086;28;20216;-77
2021/01/20 03:32:43;;;;;;;2.95;2.35;;;7.00;99.90;;;;;;5014025;28;20182;-77
2021/01/20 03:35:09;;;;;;;2.50;1.93;;;7.00;99.90;;;;;;5014084;28;20171;-77
2021/01/20 03:37:35;;;;;;;3.83;2.10;;;7.00;99.90;;;;;;5013643;28;20457;-77
2021/01/20 03:40:00;;;;;;;2.33;1.93;;;7.00;99.90;;;;;;5013859;28;20210;-77
2021/01/20 03:42:26;;;;;;;2.60;1.70;;;7.10;99.90;;;;;;5013445;28;20560;-77
2021/01/20 03:44:51;;;;;;;4.70;2.53;;;7.10;99.90;;;;;;5013722;28;20247;-76
2021/01/20 03:47:17;;;;;;;3.93;2.03;;;7.00;99.90;;;;;;5013402;28;20289;-77
2021/01/20 03:49:43;;;;;;;4.63;2.17;;;7.00;99.90;;;;;;5013625;28;20566;-77
2021/01/20 03:52:08;;;;;;;2.40;1.87;;;7.10;99.90;;;;;;5013656;28;20179;-77
2021/01/20 03:54:35;;;;;;;3.67;2.50;;;7.20;99.90;;;;;;5013606;28;20203;-77
2021/01/20 03:57:01;;;;;;;2.40;1.83;;;7.20;99.90;;;;;;5013239;28;20211;-77
2021/01/20 03:59:27;;;;;;;2.40;2.17;;;7.30;99.90;;;;;;5013569;28;20715;-77
2021/01/20 04:01:52;;;;;;;4.60;2.20;;;7.30;99.90;;;;;;5013582;28;20414;-77
2021/01/20 04:04:18;;;;;;;4.00;1.73;;;7.30;99.90;;;;;;5013583;28;20174;-78
2021/01/20 04:06:45;;;;;;;2.33;2.13;;;7.30;99.90;;;;;;5014216;28;20595;-77
2021/01/20 04:09:11;;;;;;;4.05;2.03;;;7.40;99.90;;;;;;5013390;28;20236;-76
2021/01/20 04:11:36;;;;;;;3.03;1.63;;;7.50;99.90;;;;;;5013664;28;20209;-78
2021/01/20 04:14:02;;;;;;;2.63;2.20;;;7.40;99.90;;;;;;5013505;28;20177;-77
2021/01/20 04:16:28;;;;;;;2.40;2.20;;;7.30;99.90;;;;;;5013550;28;20181;-77
2021/01/20 04:18:53;;;;;;;3.53;2.80;;;7.40;99.90;;;;;;5013296;28;20493;-77
2021/01/20 04:21:19;;;;;;;2.80;2.33;;;7.60;99.90;;;;;;5013400;28;20249;-77
2021/01/20 04:23:44;;;;;;;2.43;1.93;;;7.50;99.90;;;;;;5013349;28;20188;-76
2021/01/20 04:26:10;;;;;;;3.37;2.17;;;7.50;99.90;;;;;;5013516;28;20273;-77
2021/01/20 04:28:36;;;;;;;2.53;1.83;;;7.50;99.90;;;;;;5012909;28;20558;-77
2021/01/20 04:31:03;;;;;;;2.65;2.00;;;7.50;99.90;;;;;;5013341;28;20221;-76
2021/01/20 04:33:29;;;;;;;3.05;1.88;;;7.50;99.90;;;;;;5013283;28;20590;-77
2021/01/20 04:35:55;;;;;;;2.93;2.23;;;7.40;99.90;;;;;;5013280;28;20174;-77
2021/01/20 04:38:21;;;;;;;4.80;2.83;;;7.50;99.90;;;;;;5012875;28;20965;-77
2021/01/20 04:40:47;;;;;;;4.20;2.40;;;7.50;99.90;;;;;;5013253;28;20443;-77
2021/01/20 04:43:13;;;;;;;2.80;2.23;;;7.50;99.90;;;;;;5013389;28;20213;-77
2021/01/20 04:45:38;;;;;;;3.40;2.10;;;7.60;99.90;;;;;;5013313;28;20224;-77
2021/01/20 04:48:06;;;;;;;3.13;2.37;;;7.50;99.90;;;;;;5012927;28;20665;-77
2021/01/20 04:50:34;;;;;;;4.63;2.58;;;7.50;99.90;;;;;;5013143;28;20191;-77
2021/01/20 04:53:05;;;;;;;4.97;2.70;;;7.50;99.90;;;;;;5013120;28;20170;-77
2021/01/20 04:55:32;;;;;;;3.55;2.65;;;7.50;99.90;;;;;;5015988;28;20163;-76
2021/01/20 04:57:58;;;;;;;3.08;2.20;;;7.40;99.90;;;;;;5016265;28;20210;-76
2021/01/20 05:00:25;;;;;;;1.92;1.60;;;7.40;99.90;;;;;;5016806;28;20539;-77
2021/01/20 05:02:53;;;;;;;2.45;2.22;;;7.40;99.90;;;;;;5016542;28;20178;-77
2021/01/20 05:05:19;;;;;;;3.15;2.55;;;7.40;99.90;;;;;;5016723;28;20643;-77
2021/01/20 05:07:44;;;;;;;3.40;2.20;;;7.40;99.90;;;;;;5016250;28;20206;-77
2021/01/20 05:10:10;;;;;;;2.70;2.17;;;7.40;99.90;;;;;;5016643;28;20655;-77
2021/01/20 05:12:41;;;;;;;4.00;2.57;;;7.30;99.90;;;;;;5016783;28;20313;-76
2021/01/20 05:15:09;;;;;;;2.53;2.10;;;7.30;99.90;;;;;;5016507;28;20415;-77
2021/01/20 05:17:55;;;;;;;3.80;2.58;;;7.20;99.90;;;;;;5016066;28;20188;-77
2021/01/20 05:20:31;;;;;;;2.65;1.75;;;7.20;99.90;;;;;;5016412;28;20543;-76
2021/01/20 05:23:05;;;;;;;2.65;2.05;;;7.10;99.90;;;;;;5016409;28;20552;-77
2021/01/20 05:25:32;;;;;;;3.78;2.13;;;7.00;99.90;;;;;;5016363;28;20258;-76
2021/01/20 05:28:25;;;;;;;2.55;1.95;;;7.00;99.90;;;;;;5015883;28;20199;-77
2021/01/20 05:30:53;;;;;;;2.63;2.40;;;7.00;99.90;;;;;;5016668;28;20550;-77
2021/01/20 05:33:20;;;;;;;3.60;2.05;;;7.00;99.90;;;;;;5016278;28;20629;-77
2021/01/20 05:36:11;;;;;;;2.63;2.10;;;7.00;99.90;;;;;;5016349;28;20185;-75
2021/01/20 05:38:43;;;;;;;2.10;1.58;;;7.00;99.90;;;;;;5016025;28;20234;-77
2021/01/20 05:41:22;;;;;;;2.63;1.98;;;7.20;99.90;;;;;;5016074;28;20195;-77
2021/01/20 05:43:50;;;;;;;3.30;1.77;;;7.30;99.90;;;;;;5016154;28;20536;-77
2021/01/20 05:46:38;;;;;;;2.08;1.63;;;7.20;99.90;;;;;;5015946;28;20676;-77
2021/01/20 05:49:04;;;;;;;2.20;1.58;;;7.20;99.90;;;;;;5015911;28;20241;-77
2021/01/20 05:51:41;;;;;;;3.72;1.90;;;7.40;99.90;;;;;;5015825;28;20182;-77
2021/01/20 05:54:08;;;;;;;2.45;1.55;;;7.40;99.90;;;;;;5015813;28;20182;-77
2021/01/20 05:56:34;;;;;;;1.98;1.77;;;7.40;99.90;;;;;;5015729;28;20173;-77
2021/01/20 05:58:59;;;;;;;2.20;1.70;;;7.40;99.90;;;;;;5015308;28;20575;-78
2021/01/20 06:01:26;;;;;;;2.40;1.50;;;7.50;99.90;;;;;;5014241;28;20214;-77
2021/01/20 06:03:53;;;;;;;1.95;1.52;;;7.50;99.90;;;;;;5015606;28;20207;-76
2021/01/20 06:06:19;;;;;;;1.55;1.15;;;7.50;99.90;;;;;;5015317;28;20538;-76
2021/01/20 06:08:46;;;;;;;3.10;2.67;;;7.50;99.90;;;;;;5014986;28;20722;-77
2021/01/20 06:11:13;;;;;;;3.03;2.00;;;7.40;99.90;;;;;;5015373;28;20178;-78
2021/01/20 06:13:39;;;;;;;3.28;1.40;;;7.40;99.90;;;;;;5014093;28;20170;-77
2021/01/20 06:16:28;;;;;;;3.57;1.80;;;7.40;99.90;;;;;;5015459;28;20174;-77
2021/01/20 06:19:00;;;;;;;4.70;1.63;;;7.40;99.90;;;;;;5015409;28;20431;-76
2021/01/20 06:21:27;;;;;;;2.10;1.73;;;7.40;99.90;;;;;;5015386;28;20252;-76
2021/01/20 06:24:11;;;;;;;1.90;1.67;;;7.40;99.90;;;;;;5015479;28;20255;-76
2021/01/20 06:26:46;;;;;;;5.10;2.25;;;7.40;99.90;;;;;;5014996;28;20193;-78
2021/01/20 06:29:15;;;;;;;2.28;2.00;;;7.40;99.90;;;;;;5015364;28;20197;-77
2021/01/20 06:31:43;;;;;;;4.95;2.50;;;7.40;99.90;;;;;;5013703;28;20178;-76
2021/01/20 06:34:10;;;;;;;2.72;1.70;;;7.40;99.90;;;;;;5015081;28;20519;-76
2021/01/20 06:36:37;;;;;;;1.70;1.60;;;7.40;99.90;;;;;;5006110;28;20176;-77
2021/01/20 06:39:28;;;;;;;3.03;2.10;;;7.50;99.90;;;;;;4995311;28;20258;-78
2021/01/20 06:41:55;;;;;;;2.83;1.70;;;7.60;99.90;;;;;;4995336;28;20184;-79
2021/01/20 06:44:21;;;;;;;1.90;1.75;;;7.60;99.90;;;;;;4995605;28;20651;-78
2021/01/20 06:46:56;;;;;;;2.50;1.90;;;7.50;99.90;;;;;;4994818;28;20214;-80
2021/01/20 06:49:25;;;;;;;3.38;1.92;;;7.60;99.90;;;;;;4995116;28;20551;-77
2021/01/20 06:52:11;;;;;;;2.50;2.15;;;7.60;99.90;;;;;;4995006;28;20172;-77
2021/01/20 06:54:43;;;;;;;3.38;1.92;;;7.60;99.90;;;;;;4995134;28;20170;-76
2021/01/20 06:57:31;;;;;;;3.75;2.03;;;7.60;99.90;;;;;;4994631;28;20245;-77
2021/01/20 07:00:17;;;;;;;2.20;1.75;;;7.70;99.90;;;;;;4994846;28;20182;-77
2021/01/20 07:03:03;;;;;;;2.88;1.50;;;7.60;99.90;;;;;;4994818;28;20537;-76
2021/01/20 07:05:40;;;;;;;2.88;2.10;;;7.60;99.90;;;;;;4994902;28;20522;-77
2021/01/20 07:08:08;;;;;;;2.53;2.33;;;7.60;99.90;;;;;;4994612;28;20231;-78
2021/01/20 07:11:10;;;;;;;5.03;2.20;;;7.60;99.90;;;;;;5019594;22;20233;-78
2021/01/20 07:13:38;;;;;;;7.70;2.20;;;7.60;99.90;;;;;;5032442;28;20577;-76
2021/01/20 07:16:05;;;;;;;3.17;2.08;;;7.50;99.90;;;;;;5032797;28;20167;-77
2021/01/20 07:18:31;;;;;;;3.67;2.22;;;7.60;99.90;;;;;;5033319;28;20212;-77
2021/01/20 07:20:57;;;;;;;5.15;2.90;;;7.50;99.90;;;;;;5033933;28;20192;-77
2021/01/20 07:23:23;;;;;;;4.50;2.47;;;7.50;99.90;;;;;;5034035;28;20174;-77
2021/01/20 07:25:50;;;;;;;3.60;2.00;;;7.50;99.90;;;;;;5033878;28;20649;-76
2021/01/20 07:28:17;;;;;;;2.58;2.10;;;7.50;99.90;;;;;;5033325;28;20277;-76
2021/01/20 07:30:43;;;;;;;2.53;1.50;;;7.60;99.90;;;;;;5033834;28;20716;-77
2021/01/20 07:33:16;;;;;;;3.00;1.97;;;7.60;99.90;;;;;;5032532;28;20263;-77
2021/01/20 07:35:42;;;;;;;2.53;1.52;;;7.70;99.90;;;;;;5033829;28;20459;-75
2021/01/20 07:38:07;;;;;;;2.83;2.27;;;7.70;99.90;;;;;;5033179;28;20194;-76
2021/01/20 07:40:36;;;;;;;1.90;1.70;;;7.80;99.90;;;;;;5033987;28;20634;-77
2021/01/20 07:43:03;;;;;;;2.67;1.98;;;7.80;99.90;;;;;;5033641;28;20211;-75
2021/01/20 07:45:46;;;;;;;2.15;1.50;;;7.80;99.90;;;;;;5033577;28;20517;-76
2021/01/20 07:48:12;;;;;;;3.00;1.70;;;7.80;99.90;;;;;;5032898;28;20200;-77
2021/01/20 07:50:40;;;;;;;2.33;1.67;;;7.80;99.90;;;;;;5033368;28;20219;-78
2021/01/20 07:53:09;;;;;;;2.75;1.65;;;7.80;99.90;;;;;;5033566;28;20224;-77
2021/01/20 07:55:35;;;;;;;2.08;1.35;;;7.90;99.90;;;;;;5033411;28;20172;-77
2021/01/20 07:58:00;;;;;;;1.93;1.40;;;7.90;99.90;;;;;;5032914;28;20599;-75
2021/01/20 08:00:26;;;;;;;2.00;1.50;;;7.90;99.90;;;;;;5033327;28;20410;-76
2021/01/20 08:02:53;;;;;;;1.83;1.60;;;7.90;99.90;;;;;;5033406;28;20201;-77
2021/01/20 08:05:20;;;;;;;4.32;1.50;;;7.80;99.90;;;;;;5033346;28;20178;-76
2021/01/20 08:07:46;;;;;;;2.53;1.80;;;7.80;99.90;;;;;;5032929;28;20202;-76
2021/01/20 08:10:18;;;;;;;5.00;2.43;;;7.70;99.90;;;;;;5032899;28;20542;-76
2021/01/20 08:12:45;;;;;;;1.65;1.38;;;7.70;99.90;;;;;;5033421;28;20441;-77
2021/01/20 08:15:12;;;;;;;3.75;1.63;;;7.70;99.90;;;;;;5029654;28;20180;-77
2021/01/20 08:17:38;;;;;;;1.92;1.75;;;7.60;99.90;;;;;;5023777;28;20226;-77
2021/01/20 08:20:05;;;;;;;2.80;2.05;;;7.70;99.90;;;;;;5024955;28;20268;-76
2021/01/20 08:22:31;;;;;;;3.05;1.88;;;7.70;99.90;;;;;;5023961;28;20615;-77
2021/01/20 08:24:56;;;;;;;4.60;2.27;;;7.70;99.90;;;;;;5024081;28;20210;-77
2021/01/20 08:27:28;;;;;;;3.00;2.30;;;7.70;99.90;;;;;;5030788;28;20663;-76
2021/01/20 08:29:56;;;;;;;2.30;1.90;;;7.60;99.90;;;;;;5022015;28;20270;-76
2021/01/20 08:32:22;;;;;;;4.32;2.50;;;7.60;99.90;;;;;;5025940;28;20202;-77
2021/01/20 08:34:49;;;;;;;3.47;2.20;;;7.50;99.90;;;;;;5035849;28;20217;-77
2021/01/20 08:37:32;;;;;;;2.80;2.15;;;7.50;99.90;;;;;;5028777;28;20209;-77
2021/01/20 08:39:59;;;;;;;3.13;2.45;;;7.40;99.90;;;;;;5034645;28;20803;-77
2021/01/20 08:42:38;;;;;;;3.58;2.40;;;7.40;99.90;;;;;;5028043;28;20218;-76
2021/01/20 08:45:20;;;;;;;4.53;2.35;;;7.30;99.90;;;;;;5034491;28;20604;-76
2021/01/20 08:47:46;;;;;;;3.80;2.70;;;7.30;99.90;;;;;;5029329;28;20199;-77
2021/01/20 08:50:13;;;;;;;3.60;2.33;;;7.20;99.90;;;;;;5028018;28;20213;-77
2021/01/20 08:52:44;;;;;;;3.45;2.25;;;7.20;99.90;;;;;;5036448;28;20554;-77
2021/01/20 08:55:27;;;;;;;3.88;2.17;;;7.20;99.90;;;;;;5036152;28;20180;-77
2021/01/20 08:58:19;;;;;;;3.92;2.45;;;7.20;99.90;;;;;;5036010;28;20187;-77
2021/01/20 09:00:46;;;;;;;3.00;2.10;;;7.30;99.90;;;;;;5036810;28;20179;-77
2021/01/20 09:03:32;;;;;;;4.95;2.00;;;7.30;99.90;;;;;;5036634;28;20178;-78
2021/01/20 09:06:03;;;;;;;2.88;1.65;;;7.40;99.90;;;;;;5036175;28;20270;-77
2021/01/20 09:08:30;;;;;;;2.97;2.20;;;7.40;99.90;;;;;;5035999;28;20194;-77
2021/01/20 09:10:58;;;;;;;3.60;2.50;;;7.40;99.90;;;;;;5036245;28;20194;-76
2021/01/20 09:13:24;;;;;;;5.15;2.92;;;7.40;99.90;;;;;;5036323;28;20170;-77
2021/01/20 09:15:54;;;;;;;4.20;2.40;;;7.50;99.90;;;;;;5036262;28;20177;-78
2021/01/20 09:18:20;;;;;;;3.28;2.13;;;7.50;99.90;;;;;;5035889;28;20239;-75
2021/01/20 09:20:46;;;;;;;2.75;2.20;;;7.50;99.90;;;;;;5035922;28;20221;-76
2021/01/20 09:23:12;;;;;;;3.13;2.33;;;7.50;99.90;;;;;;5036177;28;20178;-77
2021/01/20 09:25:39;;;;;;;4.43;2.23;;;7.50;99.90;;;;;;5036282;28;20185;-76
2021/01/20 09:28:05;;;;;;;4.30;2.80;;;7.50;99.90;;;;;;5035624;28;20796;-76
2021/01/20 09:30:32;;;;;;;3.60;2.13;;;7.70;99.90;;;;;;5036117;28;20205;-75
2021/01/20 09:32:57;;;;;;;3.53;2.05;;;7.60;99.90;;;;;;5034579;28;20656;-77
2021/01/20 09:35:24;;;;;;;3.57;2.80;;;7.70;99.90;;;;;;5036007;28;20184;-76
2021/01/20 09:37:51;;;;;;;4.70;2.20;;;7.70;99.90;;;;;;5035424;28;20440;-77
2021/01/20 09:40:18;;;;;;;2.92;2.50;;;7.80;99.90;;;;;;5035498;28;20185;-77
2021/01/20 09:42:49;;;;;;;5.47;2.88;;;7.80;99.90;;;;;;5036063;28;20230;-76
2021/01/20 09:45:17;;;;;;;4.75;2.80;;;7.80;99.90;;;;;;5035600;28;20227;-78
2021/01/20 09:47:44;;;;;;;3.90;2.50;;;7.80;99.90;;;;;;5035577;28;20194;-78
2021/01/20 09:50:12;;;;;;;3.10;2.60;;;7.90;99.90;;;;;;5026635;28;20285;-78
2021/01/20 09:52:38;;;;;;;3.55;2.10;;;7.90;99.90;;;;;;5015863;28;20228;-75
2021/01/20 09:55:06;;;;;;;2.43;2.13;;;7.90;99.90;;;;;;5015731;28;20195;-76
2021/01/20 09:57:32;;;;;;;3.72;2.40;;;7.90;99.90;;;;;;5015341;28;20489;-76
2021/01/20 09:59:57;;;;;;;3.70;2.50;;;8.00;99.90;;;;;;5015767;28;20599;-78
2021/01/20 10:02:23;;;;;;;3.23;2.33;;;8.00;99.90;;;;;;5015634;28;20448;-77
2021/01/20 10:04:49;;;;;;;5.43;2.10;;;8.10;99.90;;;;;;5015467;28;20179;-76
2021/01/20 10:07:15;;;;;;;3.70;2.07;;;8.10;99.90;;;;;;5015087;28;20210;-77
2021/01/20 10:09:41;;;;;;;5.05;2.47;;;8.20;99.90;;;;;;5015161;28;20457;-75
2021/01/20 10:12:09;;;;;;;2.67;2.15;;;8.30;99.90;;;;;;5015542;28;20553;-77
2021/01/20 10:14:36;;;;;;;4.47;2.90;;;8.30;99.90;;;;;;5015404;28;20179;-77
2021/01/20 10:17:02;;;;;;;5.05;2.50;;;8.40;99.90;;;;;;5014903;28;20195;-77
2021/01/20 10:19:28;;;;;;;3.15;2.33;;;8.40;99.90;;;;;;5015171;28;20175;-76
2021/01/20 10:21:54;;;;;;;4.40;2.80;;;8.40;99.90;;;;;;5015148;28;20184;-78
2021/01/20 10:24:19;;;;;;;3.83;2.80;;;8.40;99.90;;;;;;5015367;28;20171;-77
2021/01/20 10:26:45;;;;;;;5.20;2.70;;;8.50;99.90;;;;;;5013505;28;20674;-78
2021/01/20 10:29:11;;;;;;;3.87;2.13;;;8.60;99.90;;;;;;5015229;28;20286;-77
2021/01/20 10:31:39;;;;;;;3.70;3.30;;;8.60;99.90;;;;;;5015020;28;20182;-77
2021/01/20 10:34:06;;;;;;;4.18;2.53;;;8.70;99.90;;;;;;5015303;28;20517;-77
2021/01/20 10:36:31;;;;;;;4.10;2.50;;;8.70;99.90;;;;;;5014955;28;20167;-76
2021/01/20 10:38:57;;;;;;;5.00;2.70;;;8.80;99.90;;;;;;5014903;28;20681;-77
2021/01/20 10:41:24;;;;;;;3.33;2.00;;;8.80;99.90;;;;;;5014646;28;20175;-77
2021/01/20 10:43:51;;;;;;;3.72;2.13;;;8.80;99.90;;;;;;5014898;28;20472;-77
2021/01/20 10:46:17;;;;;;;4.18;2.35;;;8.80;99.90;;;;;;5014773;28;20194;-76
2021/01/20 10:48:43;;;;;;;3.17;2.40;;;8.80;99.90;;;;;;5014296;28;20194;-76
2021/01/20 10:51:12;;;;;;;2.20;1.98;;;8.90;99.90;;;;;;5014227;28;20635;-75
2021/01/20 10:53:39;;;;;;;3.38;2.35;;;8.90;99.90;;;;;;5014135;28;20217;-76
2021/01/20 10:56:06;;;;;;;3.55;2.35;;;8.90;99.90;;;;;;5014815;28;20181;-77
2021/01/20 10:58:32;;;;;;;2.30;2.03;;;8.90;99.90;;;;;;5014259;28;20191;-76
2021/01/20 11:00:58;;;;;;;5.03;2.45;;;8.90;99.90;;;;;;5014550;28;20159;-77
2021/01/20 11:03:23;;;;;;;4.30;2.57;;;9.00;99.90;;;;;;5014417;28;20185;-78
2021/01/20 11:05:49;;;;;;;3.40;2.10;;;9.00;99.90;;;;;;5014274;28;20186;-76
2021/01/20 11:08:14;;;;;;;3.67;2.57;;;9.10;99.90;;;;;;5013932;28;20210;-76
2021/01/20 11:10:40;;;;;;;3.10;2.37;;;9.30;99.90;;;;;;5014112;28;20220;-76
2021/01/20 11:13:08;;;;;;;6.23;2.47;;;9.30;99.90;;;;;;5014390;28;20190;-76
2021/01/20 11:15:38;;;;;;;3.58;2.00;;;9.50;99.90;;;;;;5014084;28;20261;-78
2021/01/20 11:18:05;;;;;;;2.90;1.88;;;9.60;99.90;;;;;;5014322;28;20191;-76
2021/01/20 11:20:31;;;;;;;7.22;3.13;;;9.80;99.90;;;;;;5014478;28;20242;-77
2021/01/20 11:22:57;;;;;;;3.65;2.17;;;9.80;99.90;;;;;;5014274;28;20316;-76
2021/01/20 11:25:23;;;;;;;4.33;1.60;;;9.80;99.90;;;;;;5014127;28;20675;-76
2021/01/20 11:27:50;;;;;;;3.50;2.10;;;9.80;99.90;;;;;;5013619;28;20693;-75
2021/01/20 11:30:18;;;;;;;3.05;2.13;;;9.90;99.90;;;;;;5013828;28;20457;-77
2021/01/20 11:32:45;;;;;;;3.10;2.28;;;9.90;99.90;;;;;;5013925;28;20638;-76
2021/01/20 11:35:11;;;;;;;2.47;2.10;;;9.90;99.90;;;;;;5013884;28;20685;-76
2021/01/20 11:37:37;;;;;;;7.57;2.58;;;10.00;99.90;;;;;;5013234;28;20191;-78
2021/01/20 11:40:05;;;;;;;5.70;2.87;;;10.00;99.90;;;;;;5013363;28;20170;-78
2021/01/20 11:42:31;;;;;;;3.10;1.90;;;9.90;99.90;;;;;;5013611;28;20473;-76
2021/01/20 11:44:57;;;;;;;1.98;1.58;;;9.80;99.90;;;;;;5014007;28;20186;-76
2021/01/20 11:47:23;;;;;;;4.10;2.00;;;9.90;99.90;;;;;;5013767;28;20201;-78
2021/01/20 11:49:49;;;;;;;4.55;2.50;;;9.80;99.90;;;;;;5013616;28;20202;-76
2021/01/20 11:52:15;;;;;;;2.40;1.90;;;9.70;99.90;;;;;;5013696;28;20177;-77
2021/01/20 11:54:41;;;;;;;3.40;2.50;;;9.70;99.90;;;;;;5012379;28;20265;-76
2021/01/20 11:57:06;;;;;;;3.43;2.10;;;9.60;99.90;;;;;;5028348;28;20191;-77
2021/01/20 11:59:32;;;;;;;4.50;2.07;;;9.70;99.90;;;;;;5013508;28;20631;-77
2021/01/20 12:01:57;;;;;;;3.37;2.60;;;9.70;99.90;;;;;;5013404;28;20224;-77
2021/01/20 12:04:23;;;;;;;2.87;2.47;;;9.70;99.90;;;;;;5013330;28;20175;-77
2021/01/20 12:06:48;;;;;;;4.70;2.20;;;9.70;99.90;;;;;;5013154;28;20178;-76
2021/01/20 12:09:15;;;;;;;2.30;2.10;;;9.70;99.90;;;;;;5013327;28;20199;-76
2021/01/20 12:11:41;;;;;;;3.90;2.00;;;9.70;99.90;;;;;;5028473;28;20197;-76
2021/01/20 12:14:06;;;;;;;3.43;2.37;;;9.70;99.90;;;;;;5012940;28;20178;-77
2021/01/20 12:16:32;;;;;;;2.93;2.00;;;9.70;99.90;;;;;;5013301;28;20257;-76
2021/01/20 12:18:57;;;;;;;4.33;2.50;;;9.70;99.90;;;;;;5013063;28;20568;-76
2021/01/20 12:21:23;;;;;;;4.57;2.23;;;9.80;99.90;;;;;;5013373;28;20206;-75
2021/01/20 12:23:48;;;;;;;5.73;2.73;;;9.80;99.90;;;;;;5013475;28;20703;-76
2021/01/20 12:26:14;;;;;;;3.70;2.10;;;9.90;99.90;;;;;;5013355;28;20266;-77
2021/01/20 12:28:40;;;;;;;3.10;2.20;;;9.90;99.90;;;;;;5012900;28;20198;-76
2021/01/20 12:31:05;;;;;;;3.97;2.10;;;9.90;99.90;;;;;;5013777;28;20544;-78
2021/01/20 12:33:31;;;;;;;3.30;2.40;;;9.80;99.90;;;;;;5013457;28;20167;-77
2021/01/20 12:35:56;;;;;;;2.07;1.90;;;9.90;99.90;;;;;;5013154;28;20206;-76
2021/01/20 12:38:22;;;;;;;3.20;2.40;;;9.90;99.90;;;;;;5012716;28;20205;-77
2021/01/20 12:40:48;;;;;;;3.10;1.97;;;10.00;99.90;;;;;;5012994;28;20167;-76
2021/01/20 12:43:13;;;;;;;3.27;2.47;;;10.00;99.90;;;;;;5013194;28;20216;-77
2021/01/20 12:45:39;;;;;;;4.13;2.43;;;10.10;99.90;;;;;;5013229;28;20179;-78
2021/01/20 12:48:06;;;;;;;3.27;2.17;;;10.00;99.90;;;;;;5012824;28;20199;-77
2021/01/20 12:50:38;;;;;;;3.67;2.47;;;9.90;99.90;;;;;;5013096;28;20267;-78
2021/01/20 12:53:04;;;;;;;2.40;1.98;;;9.90;99.90;;;;;;5013010;28;20194;-76
2021/01/20 12:55:29;;;;;;;4.50;2.40;;;9.90;99.90;;;;;;5013413;28;20175;-78
2021/01/20 12:57:55;;;;;;;5.47;2.93;;;9.90;99.90;;;;;;5012591;28;20232;-77
2021/01/20 13:00:21;;;;;;;4.13;2.10;;;9.90;99.90;;;;;;5012563;28;20281;-77
2021/01/20 13:02:47;;;;;;;3.35;2.55;;;10.00;99.90;;;;;;5012305;28;20175;-76